sensor_id;sensor_type;location;lat;lon;timestamp;temperature;humidity
61896;DHT22;47835;52.778;5.956;2022-10-22T00:01:35;18.80;99.90
61896;DHT22;47835;52.778;5.956;2022-10-22T00:04:01;18.80;99.90
61896;DHT22;47835;52.778;5.956;2022-10-22T00:06:26;18.80;99.90
61896;DHT22;47835;52.778;5.956;2022-10-22T00:08:52;18.80;99.90
61896;DHT22;47835;52.778;5.956;2022-10-22T00:11:18;18.80;99.90
61896;DHT22;47835;52.778;5.956;2022-10-22T00:13:44;18.80;99.90
61896;DHT22;47835;52.778;5.956;2022-10-22T00:16:09;18.80;99.90
61896;DHT22;47835;52.778;5.956;2022-10-22T00:18:35;18.80;99.90
61896;DHT22;47835;52.778;5.956;2022-10-22T00:21:01;18.80;99.90
61896;DHT22;47835;52.778;5.956;2022-10-22T00:23:27;18.80;99.90
61896;DHT22;47835;52.778;5.956;2022-10-22T00:25:52;18.80;99.90
61896;DHT22;47835;52.778;5.956;2022-10-22T00:28:18;18.80;99.90
61896;DHT22;47835;52.778;5.956;2022-10-22T00:30:43;18.80;99.90
61896;DHT22;47835;52.778;5.956;2022-10-22T00:33:09;18.80;99.90
61896;DHT22;47835;52.778;5.956;2022-10-22T00:35:35;18.80;99.90
61896;DHT22;47835;52.778;5.956;2022-10-22T00:38:00;18.80;99.90
61896;DHT22;47835;52.778;5.956;2022-10-22T00:40:26;18.80;99.90
61896;DHT22;47835;52.778;5.956;2022-10-22T00:42:52;18.80;99.90
61896;DHT22;47835;52.778;5.956;2022-10-22T00:45:19;18.80;99.90
61896;DHT22;47835;52.778;5.956;2022-10-22T00:47:53;18.80;99.90
61896;DHT22;47835;52.778;5.956;2022-10-22T00:52:48;18.80;99.90
61896;DHT22;47835;52.778;5.956;2022-10-22T00:55:14;18.80;99.90
61896;DHT22;47835;52.778;5.956;2022-10-22T00:57:39;18.80;99.90
61896;DHT22;47835;52.778;5.956;2022-10-22T01:00:05;18.80;99.90
61896;DHT22;47835;52.778;5.956;2022-10-22T01:02:31;18.80;99.90
61896;DHT22;47835;52.778;5.956;2022-10-22T01:04:56;18.80;99.90
61896;DHT22;47835;52.778;5.956;2022-10-22T01:07:22;18.80;99.90
61896;DHT22;47835;52.778;5.956;2022-10-22T01:09:59;18.80;99.90
61896;DHT22;47835;52.778;5.956;2022-10-22T01:12:40;18.80;99.90
61896;DHT22;47835;52.778;5.956;2022-10-22T01:15:17;18.80;99.90
61896;DHT22;47835;52.778;5.956;2022-10-22T01:22:49;18.70;99.90
61896;DHT22;47835;52.778;5.956;2022-10-22T01:25:22;18.70;99.90
61896;DHT22;47835;52.778;5.956;2022-10-22T01:30:18;18.70;99.90
61896;DHT22;47835;52.778;5.956;2022-10-22T01:33:00;18.80;99.90
61896;DHT22;47835;52.778;5.956;2022-10-22T01:35:31;18.70;99.90
61896;DHT22;47835;52.778;5.956;2022-10-22T01:37:59;18.70;99.90
61896;DHT22;47835;52.778;5.956;2022-10-22T01:40:25;18.70;99.90
61896;DHT22;47835;52.778;5.956;2022-10-22T01:42:56;18.70;99.90
61896;DHT22;47835;52.778;5.956;2022-10-22T01:45:22;18.70;99.90
61896;DHT22;47835;52.778;5.956;2022-10-22T01:58:41;18.70;99.90
61896;DHT22;47835;52.778;5.956;2022-10-22T02:01:14;18.70;99.90
61896;DHT22;47835;52.778;5.956;2022-10-22T02:03:55;18.80;99.90
61896;DHT22;47835;52.778;5.956;2022-10-22T02:06:24;18.70;99.90
61896;DHT22;47835;52.778;5.956;2022-10-22T02:08:51;18.70;99.90
61896;DHT22;47835;52.778;5.956;2022-10-22T02:11:17;18.70;99.90
61896;DHT22;47835;52.778;5.956;2022-10-22T02:13:47;18.70;99.90
61896;DHT22;47835;52.778;5.956;2022-10-22T02:16:16;18.70;99.90
61896;DHT22;47835;52.778;5.956;2022-10-22T02:18:42;18.70;99.90
61896;DHT22;47835;52.778;5.956;2022-10-22T02:21:09;18.70;99.90
61896;DHT22;47835;52.778;5.956;2022-10-22T02:23:34;18.70;99.90
61896;DHT22;47835;52.778;5.956;2022-10-22T02:26:23;18.70;99.90
61896;DHT22;47835;52.778;5.956;2022-10-22T02:31:13;18.70;99.90
61896;DHT22;47835;52.778;5.956;2022-10-22T02:33:41;18.70;99.90
61896;DHT22;47835;52.778;5.956;2022-10-22T02:36:08;18.70;99.90
61896;DHT22;47835;52.778;5.956;2022-10-22T02:38:33;18.70;99.90
61896;DHT22;47835;52.778;5.956;2022-10-22T02:41:00;18.70;99.90
61896;DHT22;47835;52.778;5.956;2022-10-22T02:43:27;18.70;99.90
61896;DHT22;47835;52.778;5.956;2022-10-22T02:45:52;18.70;99.90
61896;DHT22;47835;52.778;5.956;2022-10-22T02:48:18;18.70;99.90
61896;DHT22;47835;52.778;5.956;2022-10-22T02:50:43;18.70;99.90
61896;DHT22;47835;52.778;5.956;2022-10-22T02:53:09;18.70;99.90
61896;DHT22;47835;52.778;5.956;2022-10-22T02:55:34;18.70;99.90
61896;DHT22;47835;52.778;5.956;2022-10-22T02:58:00;18.70;99.90
61896;DHT22;47835;52.778;5.956;2022-10-22T03:00:25;18.70;99.90
61896;DHT22;47835;52.778;5.956;2022-10-22T03:02:51;18.70;99.90
61896;DHT22;47835;52.778;5.956;2022-10-22T03:05:16;18.70;99.90
61896;DHT22;47835;52.778;5.956;2022-10-22T03:07:41;18.70;99.90
61896;DHT22;47835;52.778;5.956;2022-10-22T03:10:07;18.70;99.90
61896;DHT22;47835;52.778;5.956;2022-10-22T03:12:33;18.70;99.90
61896;DHT22;47835;52.778;5.956;2022-10-22T03:14:58;18.70;99.90
61896;DHT22;47835;52.778;5.956;2022-10-22T03:17:23;18.70;99.90
61896;DHT22;47835;52.778;5.956;2022-10-22T03:19:49;18.70;99.90
61896;DHT22;47835;52.778;5.956;2022-10-22T03:22:22;18.70;99.90
61896;DHT22;47835;52.778;5.956;2022-10-22T03:24:49;18.70;99.90
61896;DHT22;47835;52.778;5.956;2022-10-22T03:27:17;18.70;99.90
61896;DHT22;47835;52.778;5.956;2022-10-22T03:29:44;18.70;99.90
61896;DHT22;47835;52.778;5.956;2022-10-22T03:32:11;18.70;99.90
61896;DHT22;47835;52.778;5.956;2022-10-22T03:34:37;18.70;99.90
61896;DHT22;47835;52.778;5.956;2022-10-22T03:37:02;18.70;99.90
61896;DHT22;47835;52.778;5.956;2022-10-22T03:39:28;18.70;99.90
61896;DHT22;47835;52.778;5.956;2022-10-22T03:41:54;18.70;99.90
61896;DHT22;47835;52.778;5.956;2022-10-22T03:44:20;18.70;99.90
61896;DHT22;47835;52.778;5.956;2022-10-22T03:46:46;18.70;99.90
61896;DHT22;47835;52.778;5.956;2022-10-22T03:49:12;18.70;99.90
61896;DHT22;47835;52.778;5.956;2022-10-22T03:51:37;18.70;99.90
61896;DHT22;47835;52.778;5.956;2022-10-22T03:54:03;18.70;99.90
61896;DHT22;47835;52.778;5.956;2022-10-22T03:56:28;18.70;99.90
61896;DHT22;47835;52.778;5.956;2022-10-22T03:58:54;18.70;99.90
61896;DHT22;47835;52.778;5.956;2022-10-22T04:01:20;18.70;99.90
61896;DHT22;47835;52.778;5.956;2022-10-22T04:03:46;18.70;99.90
61896;DHT22;47835;52.778;5.956;2022-10-22T04:06:11;18.70;99.90
61896;DHT22;47835;52.778;5.956;2022-10-22T04:08:37;18.70;99.90
61896;DHT22;47835;52.778;5.956;2022-10-22T04:11:03;18.70;99.90
61896;DHT22;47835;52.778;5.956;2022-10-22T04:13:29;18.70;99.90
61896;DHT22;47835;52.778;5.956;2022-10-22T04:15:54;18.70;99.90
61896;DHT22;47835;52.778;5.956;2022-10-22T04:18:21;18.70;99.90
61896;DHT22;47835;52.778;5.956;2022-10-22T04:20:47;18.70;99.90
61896;DHT22;47835;52.778;5.956;2022-10-22T04:23:12;18.70;99.90
61896;DHT22;47835;52.778;5.956;2022-10-22T04:25:38;18.70;99.90
61896;DHT22;47835;52.778;5.956;2022-10-22T04:28:06;18.70;99.90
61896;DHT22;47835;52.778;5.956;2022-10-22T04:30:32;18.70;99.90
61896;DHT22;47835;52.778;5.956;2022-10-22T04:32:58;18.70;99.90
61896;DHT22;47835;52.778;5.956;2022-10-22T04:35:23;18.70;99.90
61896;DHT22;47835;52.778;5.956;2022-10-22T04:37:49;18.70;99.90
61896;DHT22;47835;52.778;5.956;2022-10-22T04:40:14;18.70;99.90
61896;DHT22;47835;52.778;5.956;2022-10-22T04:42:40;18.70;99.90
61896;DHT22;47835;52.778;5.956;2022-10-22T04:45:05;18.70;99.90
61896;DHT22;47835;52.778;5.956;2022-10-22T04:47:31;18.70;99.90
61896;DHT22;47835;52.778;5.956;2022-10-22T04:49:56;18.70;99.90
61896;DHT22;47835;52.778;5.956;2022-10-22T04:52:22;18.70;99.90
61896;DHT22;47835;52.778;5.956;2022-10-22T04:54:47;18.70;99.90
61896;DHT22;47835;52.778;5.956;2022-10-22T04:57:13;18.70;99.90
61896;DHT22;47835;52.778;5.956;2022-10-22T04:59:38;18.70;99.90
61896;DHT22;47835;52.778;5.956;2022-10-22T05:02:04;18.60;99.90
61896;DHT22;47835;52.778;5.956;2022-10-22T05:04:29;18.70;99.90
61896;DHT22;47835;52.778;5.956;2022-10-22T05:06:55;18.60;99.90
61896;DHT22;47835;52.778;5.956;2022-10-22T05:09:20;18.70;99.90
61896;DHT22;47835;52.778;5.956;2022-10-22T05:11:47;18.70;99.90
61896;DHT22;47835;52.778;5.956;2022-10-22T05:14:14;18.70;99.90
61896;DHT22;47835;52.778;5.956;2022-10-22T05:16:39;18.60;99.90
61896;DHT22;47835;52.778;5.956;2022-10-22T05:19:05;18.60;99.90
61896;DHT22;47835;52.778;5.956;2022-10-22T05:21:31;18.70;99.90
61896;DHT22;47835;52.778;5.956;2022-10-22T05:23:56;18.70;99.90
61896;DHT22;47835;52.778;5.956;2022-10-22T05:26:24;18.70;99.90
61896;DHT22;47835;52.778;5.956;2022-10-22T05:28:50;18.60;99.90
61896;DHT22;47835;52.778;5.956;2022-10-22T05:31:16;18.70;99.90
61896;DHT22;47835;52.778;5.956;2022-10-22T05:33:42;18.70;99.90
61896;DHT22;47835;52.778;5.956;2022-10-22T05:36:08;18.70;99.90
61896;DHT22;47835;52.778;5.956;2022-10-22T05:38:35;18.60;99.90
61896;DHT22;47835;52.778;5.956;2022-10-22T05:41:01;18.60;99.90
61896;DHT22;47835;52.778;5.956;2022-10-22T05:43:27;18.60;99.90
61896;DHT22;47835;52.778;5.956;2022-10-22T05:45:53;18.60;99.90
61896;DHT22;47835;52.778;5.956;2022-10-22T05:48:18;18.60;99.90
61896;DHT22;47835;52.778;5.956;2022-10-22T05:50:44;18.60;99.90
61896;DHT22;47835;52.778;5.956;2022-10-22T05:53:15;18.70;99.90
61896;DHT22;47835;52.778;5.956;2022-10-22T05:55:40;18.70;99.90
61896;DHT22;47835;52.778;5.956;2022-10-22T05:58:06;18.60;99.90
61896;DHT22;47835;52.778;5.956;2022-10-22T06:00:31;18.60;99.90
61896;DHT22;47835;52.778;5.956;2022-10-22T06:02:58;18.60;99.90
61896;DHT22;47835;52.778;5.956;2022-10-22T06:05:24;18.60;99.90
61896;DHT22;47835;52.778;5.956;2022-10-22T06:07:50;18.70;99.90
61896;DHT22;47835;52.778;5.956;2022-10-22T06:10:16;18.60;99.90
61896;DHT22;47835;52.778;5.956;2022-10-22T06:12:42;18.60;99.90
61896;DHT22;47835;52.778;5.956;2022-10-22T06:15:11;18.60;99.90
61896;DHT22;47835;52.778;5.956;2022-10-22T06:17:36;18.60;99.90
61896;DHT22;47835;52.778;5.956;2022-10-22T06:20:02;18.60;99.90
61896;DHT22;47835;52.778;5.956;2022-10-22T06:22:28;18.60;99.90
61896;DHT22;47835;52.778;5.956;2022-10-22T06:24:53;18.60;99.90
61896;DHT22;47835;52.778;5.956;2022-10-22T06:27:18;18.60;99.90
61896;DHT22;47835;52.778;5.956;2022-10-22T06:29:44;18.60;99.90
61896;DHT22;47835;52.778;5.956;2022-10-22T06:32:09;18.60;99.90
61896;DHT22;47835;52.778;5.956;2022-10-22T06:34:35;18.60;99.90
61896;DHT22;47835;52.778;5.956;2022-10-22T06:37:00;18.60;99.90
61896;DHT22;47835;52.778;5.956;2022-10-22T06:39:26;18.60;99.90
61896;DHT22;47835;52.778;5.956;2022-10-22T06:41:51;18.60;99.90
61896;DHT22;47835;52.778;5.956;2022-10-22T06:44:17;18.60;99.90
61896;DHT22;47835;52.778;5.956;2022-10-22T06:46:43;18.60;99.90
61896;DHT22;47835;52.778;5.956;2022-10-22T06:49:10;18.60;99.90
61896;DHT22;47835;52.778;5.956;2022-10-22T06:51:36;18.60;99.90
61896;DHT22;47835;52.778;5.956;2022-10-22T06:54:02;18.60;99.90
61896;DHT22;47835;52.778;5.956;2022-10-22T06:56:27;18.60;99.90
61896;DHT22;47835;52.778;5.956;2022-10-22T06:58:54;18.60;99.90
61896;DHT22;47835;52.778;5.956;2022-10-22T07:01:21;18.60;99.90
61896;DHT22;47835;52.778;5.956;2022-10-22T07:03:48;18.60;99.90
61896;DHT22;47835;52.778;5.956;2022-10-22T07:06:14;18.60;99.90
61896;DHT22;47835;52.778;5.956;2022-10-22T07:08:40;18.40;99.90
61896;DHT22;47835;52.778;5.956;2022-10-22T07:11:10;18.40;99.90
61896;DHT22;47835;52.778;5.956;2022-10-22T07:13:36;18.30;99.90
61896;DHT22;47835;52.778;5.956;2022-10-22T07:16:02;18.30;99.90
61896;DHT22;47835;52.778;5.956;2022-10-22T07:18:28;18.20;99.90
61896;DHT22;47835;52.778;5.956;2022-10-22T07:20:54;18.10;99.90
61896;DHT22;47835;52.778;5.956;2022-10-22T07:23:19;18.10;99.90
61896;DHT22;47835;52.778;5.956;2022-10-22T07:25:45;18.10;99.90
61896;DHT22;47835;52.778;5.956;2022-10-22T07:28:10;18.20;99.90
61896;DHT22;47835;52.778;5.956;2022-10-22T07:30:37;18.20;99.90
61896;DHT22;47835;52.778;5.956;2022-10-22T07:33:03;18.10;99.90
61896;DHT22;47835;52.778;5.956;2022-10-22T07:35:28;18.10;99.90
61896;DHT22;47835;52.778;5.956;2022-10-22T07:37:54;18.10;99.90
61896;DHT22;47835;52.778;5.956;2022-10-22T07:40:19;18.10;99.90
61896;DHT22;47835;52.778;5.956;2022-10-22T07:42:45;18.00;99.90
61896;DHT22;47835;52.778;5.956;2022-10-22T07:45:10;18.10;99.90
61896;DHT22;47835;52.778;5.956;2022-10-22T07:47:36;18.00;99.90
61896;DHT22;47835;52.778;5.956;2022-10-22T07:50:02;18.00;99.90
61896;DHT22;47835;52.778;5.956;2022-10-22T07:52:27;18.00;99.90
61896;DHT22;47835;52.778;5.956;2022-10-22T07:54:53;18.00;99.90
61896;DHT22;47835;52.778;5.956;2022-10-22T07:57:18;18.00;99.90
61896;DHT22;47835;52.778;5.956;2022-10-22T07:59:44;18.00;99.90
61896;DHT22;47835;52.778;5.956;2022-10-22T08:02:10;18.00;99.90
61896;DHT22;47835;52.778;5.956;2022-10-22T08:04:36;18.00;99.90
61896;DHT22;47835;52.778;5.956;2022-10-22T08:07:01;18.00;99.90
61896;DHT22;47835;52.778;5.956;2022-10-22T08:09:27;18.00;99.90
61896;DHT22;47835;52.778;5.956;2022-10-22T08:11:52;18.00;99.90
61896;DHT22;47835;52.778;5.956;2022-10-22T08:14:18;18.00;99.90
61896;DHT22;47835;52.778;5.956;2022-10-22T08:16:44;18.00;99.90
61896;DHT22;47835;52.778;5.956;2022-10-22T08:19:10;18.10;99.90
61896;DHT22;47835;52.778;5.956;2022-10-22T08:21:38;18.10;99.90
61896;DHT22;47835;52.778;5.956;2022-10-22T08:24:03;18.10;99.90
61896;DHT22;47835;52.778;5.956;2022-10-22T08:26:29;18.10;99.90
61896;DHT22;47835;52.778;5.956;2022-10-22T08:28:54;18.10;99.90
61896;DHT22;47835;52.778;5.956;2022-10-22T08:31:20;18.10;99.90
61896;DHT22;47835;52.778;5.956;2022-10-22T08:33:45;18.10;99.90
61896;DHT22;47835;52.778;5.956;2022-10-22T08:36:10;18.10;99.90
61896;DHT22;47835;52.778;5.956;2022-10-22T08:38:36;18.10;99.90
61896;DHT22;47835;52.778;5.956;2022-10-22T08:41:06;18.10;99.90
61896;DHT22;47835;52.778;5.956;2022-10-22T08:48:59;18.20;99.90
61896;DHT22;47835;52.778;5.956;2022-10-22T08:51:26;18.20;99.90
61896;DHT22;47835;52.778;5.956;2022-10-22T08:56:33;18.10;99.90
61896;DHT22;47835;52.778;5.956;2022-10-22T08:59:13;18.00;99.90
61896;DHT22;47835;52.778;5.956;2022-10-22T09:01:42;18.00;99.90
61896;DHT22;47835;52.778;5.956;2022-10-22T09:04:20;18.00;99.90
61896;DHT22;47835;52.778;5.956;2022-10-22T09:06:50;18.00;99.90
61896;DHT22;47835;52.778;5.956;2022-10-22T09:09:16;18.00;99.90
61896;DHT22;47835;52.778;5.956;2022-10-22T09:11:43;18.00;99.90
61896;DHT22;47835;52.778;5.956;2022-10-22T09:14:11;18.00;99.90
61896;DHT22;47835;52.778;5.956;2022-10-22T09:19:25;18.10;99.90
61896;DHT22;47835;52.778;5.956;2022-10-22T09:26:47;18.20;99.90
61896;DHT22;47835;52.778;5.956;2022-10-22T09:29:17;18.30;99.90
61896;DHT22;47835;52.778;5.956;2022-10-22T09:31:43;18.30;99.90
61896;DHT22;47835;52.778;5.956;2022-10-22T09:34:08;18.40;99.90
61896;DHT22;47835;52.778;5.956;2022-10-22T09:36:34;18.50;99.90
61896;DHT22;47835;52.778;5.956;2022-10-22T09:39:00;18.50;99.90
61896;DHT22;47835;52.778;5.956;2022-10-22T09:41:27;18.60;99.90
61896;DHT22;47835;52.778;5.956;2022-10-22T09:43:55;18.60;99.90
61896;DHT22;47835;52.778;5.956;2022-10-22T09:46:22;18.60;99.90
61896;DHT22;47835;52.778;5.956;2022-10-22T09:48:57;18.70;99.90
61896;DHT22;47835;52.778;5.956;2022-10-22T09:51:26;18.70;99.90
61896;DHT22;47835;52.778;5.956;2022-10-22T09:54:01;18.70;99.90
61896;DHT22;47835;52.778;5.956;2022-10-22T09:56:29;18.80;99.90
61896;DHT22;47835;52.778;5.956;2022-10-22T09:58:59;18.80;99.90
61896;DHT22;47835;52.778;5.956;2022-10-22T10:01:32;18.80;99.90
61896;DHT22;47835;52.778;5.956;2022-10-22T10:04:05;18.70;99.90
61896;DHT22;47835;52.778;5.956;2022-10-22T10:06:32;18.60;99.90
61896;DHT22;47835;52.778;5.956;2022-10-22T10:08:57;18.60;99.90
61896;DHT22;47835;52.778;5.956;2022-10-22T10:11:28;18.50;99.90
61896;DHT22;47835;52.778;5.956;2022-10-22T10:14:07;18.50;99.90
61896;DHT22;47835;52.778;5.956;2022-10-22T10:16:40;18.40;99.90
61896;DHT22;47835;52.778;5.956;2022-10-22T10:21:38;18.30;99.90
61896;DHT22;47835;52.778;5.956;2022-10-22T10:24:12;18.30;99.90
61896;DHT22;47835;52.778;5.956;2022-10-22T10:26:42;18.30;99.90
61896;DHT22;47835;52.778;5.956;2022-10-22T10:29:12;18.30;99.90
61896;DHT22;47835;52.778;5.956;2022-10-22T10:34:12;18.30;99.90
61896;DHT22;47835;52.778;5.956;2022-10-22T10:39:33;18.20;99.90
61896;DHT22;47835;52.778;5.956;2022-10-22T10:46:57;18.30;99.90
61896;DHT22;47835;52.778;5.956;2022-10-22T10:49:29;18.30;99.90
61896;DHT22;47835;52.778;5.956;2022-10-22T11:00:10;18.30;99.90
61896;DHT22;47835;52.778;5.956;2022-10-22T11:02:44;18.30;99.90
61896;DHT22;47835;52.778;5.956;2022-10-22T11:05:24;18.30;99.90
61896;DHT22;47835;52.778;5.956;2022-10-22T11:07:56;18.30;99.90
61896;DHT22;47835;52.778;5.956;2022-10-22T11:10:27;18.40;99.90
61896;DHT22;47835;52.778;5.956;2022-10-22T11:13:55;18.40;99.90
61896;DHT22;47835;52.778;5.956;2022-10-22T11:15:54;18.40;99.90
61896;DHT22;47835;52.778;5.956;2022-10-22T11:18:31;18.40;99.90
61896;DHT22;47835;52.778;5.956;2022-10-22T11:23:37;18.40;99.90
61896;DHT22;47835;52.778;5.956;2022-10-22T11:26:04;18.40;99.90
61896;DHT22;47835;52.778;5.956;2022-10-22T11:28:40;18.40;99.90
61896;DHT22;47835;52.778;5.956;2022-10-22T11:31:12;18.40;99.90
61896;DHT22;47835;52.778;5.956;2022-10-22T11:33:41;18.40;99.90
61896;DHT22;47835;52.778;5.956;2022-10-22T11:36:10;18.40;99.90
61896;DHT22;47835;52.778;5.956;2022-10-22T11:38:36;18.40;99.90
61896;DHT22;47835;52.778;5.956;2022-10-22T11:41:09;18.50;99.90
61896;DHT22;47835;52.778;5.956;2022-10-22T11:48:44;18.50;99.90
61896;DHT22;47835;52.778;5.956;2022-10-22T11:51:35;18.50;99.90
61896;DHT22;47835;52.778;5.956;2022-10-22T11:54:01;18.50;99.90
61896;DHT22;47835;52.778;5.956;2022-10-22T11:56:35;18.50;99.90
61896;DHT22;47835;52.778;5.956;2022-10-22T11:59:02;18.50;99.90
61896;DHT22;47835;52.778;5.956;2022-10-22T12:01:49;18.50;99.90
61896;DHT22;47835;52.778;5.956;2022-10-22T12:04:15;18.50;99.90
61896;DHT22;47835;52.778;5.956;2022-10-22T12:09:18;18.50;99.90
61896;DHT22;47835;52.778;5.956;2022-10-22T12:11:46;18.40;99.90
61896;DHT22;47835;52.778;5.956;2022-10-22T12:14:26;18.40;99.90
61896;DHT22;47835;52.778;5.956;2022-10-22T12:19:38;18.40;99.90
61896;DHT22;47835;52.778;5.956;2022-10-22T12:24:33;18.50;99.90
61896;DHT22;47835;52.778;5.956;2022-10-22T12:26:59;18.40;99.90
61896;DHT22;47835;52.778;5.956;2022-10-22T12:29:24;18.50;99.90
61896;DHT22;47835;52.778;5.956;2022-10-22T12:31:52;18.50;99.90
61896;DHT22;47835;52.778;5.956;2022-10-22T12:34:20;18.50;99.90
61896;DHT22;47835;52.778;5.956;2022-10-22T12:36:46;18.50;99.90
61896;DHT22;47835;52.778;5.956;2022-10-22T12:39:17;18.50;99.90
61896;DHT22;47835;52.778;5.956;2022-10-22T12:41:42;18.50;99.90
61896;DHT22;47835;52.778;5.956;2022-10-22T12:44:12;18.40;99.90
61896;DHT22;47835;52.778;5.956;2022-10-22T12:46:38;18.40;99.90
61896;DHT22;47835;52.778;5.956;2022-10-22T12:49:12;18.40;99.90
61896;DHT22;47835;52.778;5.956;2022-10-22T12:51:38;18.40;99.90
61896;DHT22;47835;52.778;5.956;2022-10-22T12:54:08;18.40;99.90
61896;DHT22;47835;52.778;5.956;2022-10-22T12:56:37;18.40;99.90
61896;DHT22;47835;52.778;5.956;2022-10-22T12:59:07;18.40;99.90
61896;DHT22;47835;52.778;5.956;2022-10-22T13:01:38;18.40;99.90
61896;DHT22;47835;52.778;5.956;2022-10-22T13:06:49;18.40;99.90
61896;DHT22;47835;52.778;5.956;2022-10-22T13:09:19;18.40;99.90
61896;DHT22;47835;52.778;5.956;2022-10-22T13:14:35;18.40;99.90
61896;DHT22;47835;52.778;5.956;2022-10-22T13:17:03;18.40;99.90
61896;DHT22;47835;52.778;5.956;2022-10-22T13:20:15;18.40;99.90
61896;DHT22;47835;52.778;5.956;2022-10-22T13:22:23;18.40;99.90
61896;DHT22;47835;52.778;5.956;2022-10-22T13:24:49;18.40;99.90
61896;DHT22;47835;52.778;5.956;2022-10-22T13:27:15;18.40;99.90
61896;DHT22;47835;52.778;5.956;2022-10-22T13:29:41;18.40;99.90
61896;DHT22;47835;52.778;5.956;2022-10-22T13:32:26;18.40;99.90
61896;DHT22;47835;52.778;5.956;2022-10-22T13:34:54;18.40;99.90
61896;DHT22;47835;52.778;5.956;2022-10-22T13:37:20;18.40;99.90
61896;DHT22;47835;52.778;5.956;2022-10-22T13:39:45;18.40;99.90
61896;DHT22;47835;52.778;5.956;2022-10-22T13:42:11;18.40;99.90
61896;DHT22;47835;52.778;5.956;2022-10-22T13:44:37;18.40;99.90
61896;DHT22;47835;52.778;5.956;2022-10-22T13:47:03;18.40;99.90
61896;DHT22;47835;52.778;5.956;2022-10-22T13:49:29;18.40;99.90
61896;DHT22;47835;52.778;5.956;2022-10-22T13:51:55;18.40;99.90
61896;DHT22;47835;52.778;5.956;2022-10-22T13:54:21;18.40;99.90
61896;DHT22;47835;52.778;5.956;2022-10-22T13:56:48;18.40;99.90
61896;DHT22;47835;52.778;5.956;2022-10-22T13:59:13;18.50;99.90
61896;DHT22;47835;52.778;5.956;2022-10-22T14:01:39;18.50;99.90
61896;DHT22;47835;52.778;5.956;2022-10-22T14:04:05;18.50;99.90
61896;DHT22;47835;52.778;5.956;2022-10-22T14:06:31;18.50;99.90
61896;DHT22;47835;52.778;5.956;2022-10-22T14:08:59;18.50;99.90
61896;DHT22;47835;52.778;5.956;2022-10-22T14:11:26;18.50;99.90
61896;DHT22;47835;52.778;5.956;2022-10-22T14:13:54;18.50;99.90
61896;DHT22;47835;52.778;5.956;2022-10-22T14:16:24;18.50;99.90
61896;DHT22;47835;52.778;5.956;2022-10-22T14:18:50;18.60;99.90
61896;DHT22;47835;52.778;5.956;2022-10-22T14:21:16;18.60;99.90
61896;DHT22;47835;52.778;5.956;2022-10-22T14:23:43;18.60;99.90
61896;DHT22;47835;52.778;5.956;2022-10-22T14:26:25;18.60;99.90
61896;DHT22;47835;52.778;5.956;2022-10-22T14:28:57;18.60;99.90
61896;DHT22;47835;52.778;5.956;2022-10-22T14:31:23;18.60;99.90
61896;DHT22;47835;52.778;5.956;2022-10-22T14:33:48;18.60;99.90
61896;DHT22;47835;52.778;5.956;2022-10-22T14:36:15;18.60;99.90
61896;DHT22;47835;52.778;5.956;2022-10-22T14:38:41;18.70;99.90
61896;DHT22;47835;52.778;5.956;2022-10-22T14:41:21;18.70;99.90
61896;DHT22;47835;52.778;5.956;2022-10-22T14:43:46;18.70;99.90
61896;DHT22;47835;52.778;5.956;2022-10-22T14:46:12;18.70;99.90
61896;DHT22;47835;52.778;5.956;2022-10-22T14:48:38;18.70;99.90
61896;DHT22;47835;52.778;5.956;2022-10-22T14:51:04;18.70;99.90
61896;DHT22;47835;52.778;5.956;2022-10-22T14:53:29;18.70;99.90
61896;DHT22;47835;52.778;5.956;2022-10-22T14:55:55;18.70;99.90
61896;DHT22;47835;52.778;5.956;2022-10-22T14:58:23;18.70;99.90
61896;DHT22;47835;52.778;5.956;2022-10-22T15:00:48;18.70;99.90
61896;DHT22;47835;52.778;5.956;2022-10-22T15:03:14;18.70;99.90
61896;DHT22;47835;52.778;5.956;2022-10-22T15:05:40;18.70;99.90
61896;DHT22;47835;52.778;5.956;2022-10-22T15:08:12;18.70;99.90
61896;DHT22;47835;52.778;5.956;2022-10-22T15:10:38;18.70;99.90
61896;DHT22;47835;52.778;5.956;2022-10-22T15:13:04;18.70;99.90
61896;DHT22;47835;52.778;5.956;2022-10-22T15:15:30;18.70;99.90
61896;DHT22;47835;52.778;5.956;2022-10-22T15:17:55;18.70;99.90
61896;DHT22;47835;52.778;5.956;2022-10-22T15:20:20;18.70;99.90
61896;DHT22;47835;52.778;5.956;2022-10-22T15:22:46;18.70;99.90
61896;DHT22;47835;52.778;5.956;2022-10-22T15:25:12;18.70;99.90
61896;DHT22;47835;52.778;5.956;2022-10-22T15:27:37;18.70;99.90
61896;DHT22;47835;52.778;5.956;2022-10-22T15:30:04;18.70;99.90
61896;DHT22;47835;52.778;5.956;2022-10-22T15:32:29;18.70;99.90
61896;DHT22;47835;52.778;5.956;2022-10-22T15:34:56;18.70;99.90
61896;DHT22;47835;52.778;5.956;2022-10-22T15:37:22;18.70;99.90
61896;DHT22;47835;52.778;5.956;2022-10-22T15:39:47;18.70;99.90
61896;DHT22;47835;52.778;5.956;2022-10-22T15:42:13;18.70;99.90
61896;DHT22;47835;52.778;5.956;2022-10-22T15:44:42;18.60;99.90
61896;DHT22;47835;52.778;5.956;2022-10-22T15:47:08;18.70;99.90
61896;DHT22;47835;52.778;5.956;2022-10-22T15:49:35;18.70;99.90
61896;DHT22;47835;52.778;5.956;2022-10-22T15:52:01;18.70;99.90
61896;DHT22;47835;52.778;5.956;2022-10-22T15:54:27;18.70;99.90
61896;DHT22;47835;52.778;5.956;2022-10-22T15:56:53;18.70;99.90
61896;DHT22;47835;52.778;5.956;2022-10-22T15:59:19;18.70;99.90
61896;DHT22;47835;52.778;5.956;2022-10-22T16:01:45;18.70;99.90
61896;DHT22;47835;52.778;5.956;2022-10-22T16:04:10;18.70;99.90
61896;DHT22;47835;52.778;5.956;2022-10-22T16:06:40;18.70;99.90
61896;DHT22;47835;52.778;5.956;2022-10-22T16:09:07;18.80;99.90
61896;DHT22;47835;52.778;5.956;2022-10-22T16:11:33;18.80;99.90
61896;DHT22;47835;52.778;5.956;2022-10-22T16:13:59;18.80;99.90
61896;DHT22;47835;52.778;5.956;2022-10-22T16:16:26;18.80;99.90
61896;DHT22;47835;52.778;5.956;2022-10-22T16:18:52;18.80;99.90
61896;DHT22;47835;52.778;5.956;2022-10-22T16:21:18;18.80;99.90
61896;DHT22;47835;52.778;5.956;2022-10-22T16:23:44;18.80;99.90
61896;DHT22;47835;52.778;5.956;2022-10-22T16:26:09;18.80;99.90
61896;DHT22;47835;52.778;5.956;2022-10-22T16:28:35;18.80;99.90
61896;DHT22;47835;52.778;5.956;2022-10-22T16:31:01;18.80;99.90
61896;DHT22;47835;52.778;5.956;2022-10-22T16:33:27;18.80;99.90
61896;DHT22;47835;52.778;5.956;2022-10-22T16:35:53;18.80;99.90
61896;DHT22;47835;52.778;5.956;2022-10-22T16:38:18;18.80;99.90
61896;DHT22;47835;52.778;5.956;2022-10-22T16:40:43;18.80;99.90
61896;DHT22;47835;52.778;5.956;2022-10-22T16:43:09;18.70;99.90
61896;DHT22;47835;52.778;5.956;2022-10-22T16:45:34;18.70;99.90
61896;DHT22;47835;52.778;5.956;2022-10-22T16:48:00;18.80;99.90
61896;DHT22;47835;52.778;5.956;2022-10-22T16:50:26;18.80;99.90
61896;DHT22;47835;52.778;5.956;2022-10-22T16:52:51;18.70;99.90